Time;durP1;ratioP1;P1;durP2;ratioP2;P2;SDS_P1;SDS_P2;PMS_P1;PMS_P2;Temp;Humidity;BMP_temperature;BMP_pressure;BME280_temperature;BME280_humidity;BME280_pressure;Samples;Min_cycle;Max_cycle;Signal;HPM_P1;HPM_P2
2022/01/13 00:02:04;;;;;;;16.02;10.30;;;8.80;99.90;;;;;;4998730;28;20425;-73
2022/01/13 00:04:30;;;;;;;14.95;9.15;;;8.90;99.90;;;;;;5016566;28;20378;-73
2022/01/13 00:06:56;;;;;;;16.02;10.63;;;8.80;99.90;;;;;;5016463;28;20026;-73
2022/01/13 00:09:22;;;;;;;17.02;10.70;;;8.90;99.90;;;;;;5016153;28;20029;-73
2022/01/13 00:11:49;;;;;;;14.45;10.32;;;8.90;99.90;;;;;;5016365;28;20026;-73
2022/01/13 00:22:44;;;;;;;12.90;8.43;;;8.80;99.90;;;;;;5015946;28;20084;-73
2022/01/13 00:25:13;;;;;;;10.35;6.82;;;8.70;99.90;;;;;;5015940;28;20033;-73
2022/01/13 00:27:43;;;;;;;12.43;7.43;;;8.60;99.90;;;;;;4998198;28;20053;-73
2022/01/13 00:30:15;;;;;;;16.00;7.88;;;8.70;99.90;;;;;;5016069;28;20076;-73
2022/01/13 00:32:41;;;;;;;10.85;6.90;;;8.70;99.90;;;;;;5016034;28;20049;-73
2022/01/13 00:35:07;;;;;;;11.70;6.45;;;8.60;99.90;;;;;;5015619;28;20026;-73
2022/01/13 00:37:34;;;;;;;11.57;7.28;;;8.60;99.90;;;;;;5015508;28;20038;-73
2022/01/13 00:40:00;;;;;;;9.93;6.15;;;8.60;99.90;;;;;;5015593;28;20019;-73
2022/01/13 00:42:25;;;;;;;10.95;5.95;;;8.60;99.90;;;;;;5015421;28;20029;-73
2022/01/13 00:44:51;;;;;;;11.43;6.63;;;8.70;99.90;;;;;;5015026;28;20128;-73
2022/01/13 00:47:18;;;;;;;10.25;6.65;;;8.70;99.90;;;;;;5015943;28;20018;-73
2022/01/13 00:49:43;;;;;;;10.98;6.97;;;8.70;99.90;;;;;;5015683;28;20033;-73
2022/01/13 00:52:09;;;;;;;68.70;40.42;;;8.70;99.90;;;;;;5015191;28;20018;-73
2022/01/13 00:54:35;;;;;;;71.90;41.17;;;8.70;99.90;;;;;;5015558;28;20030;-73
2022/01/13 00:57:01;;;;;;;53.45;34.75;;;8.70;99.90;;;;;;5015431;28;20026;-73
2022/01/13 00:59:27;;;;;;;30.25;24.90;;;8.60;99.90;;;;;;5015158;28;20030;-73
2022/01/13 01:01:54;;;;;;;31.13;27.83;;;8.60;99.90;;;;;;4997505;28;20076;-73
2022/01/13 01:04:20;;;;;;;16.17;12.60;;;8.60;99.90;;;;;;5015376;28;20026;-73
2022/01/13 01:06:47;;;;;;;36.08;32.97;;;8.60;99.90;;;;;;5015046;28;20022;-73
2022/01/13 01:09:16;;;;;;;26.90;24.40;;;8.60;99.90;;;;;;5015061;28;20037;-73
2022/01/13 01:11:45;;;;;;;17.42;15.32;;;8.60;99.90;;;;;;4997726;28;20168;-73
2022/01/13 01:14:13;;;;;;;17.63;13.77;;;8.70;99.90;;;;;;5014975;28;20030;-73
2022/01/13 01:16:38;;;;;;;13.75;11.05;;;8.70;99.90;;;;;;5014864;28;20022;-73
2022/01/13 01:19:07;;;;;;;12.38;7.43;;;8.70;99.90;;;;;;5014845;28;20374;-73
2022/01/13 01:29:21;;;;;;;45.40;28.95;;;8.70;99.90;;;;;;5014919;28;20030;-73
2022/01/13 01:31:51;;;;;;;22.25;16.05;;;8.60;99.90;;;;;;4996763;28;20413;-73
2022/01/13 01:36:52;;;;;;;15.45;9.85;;;8.60;99.90;;;;;;5014504;28;20131;-73
2022/01/13 01:39:18;;;;;;;14.88;9.73;;;8.60;99.90;;;;;;5014476;28;20022;-73
2022/01/13 01:41:46;;;;;;;15.25;10.20;;;8.50;99.90;;;;;;5014878;28;20060;-73
2022/01/13 01:44:29;;;;;;;11.55;6.82;;;8.40;99.90;;;;;;5014161;28;20129;-73
2022/01/13 01:46:55;;;;;;;12.23;7.30;;;8.40;99.90;;;;;;5014930;28;20421;-73
2022/01/13 01:49:24;;;;;;;13.77;8.07;;;8.40;99.90;;;;;;5014303;28;20050;-73
2022/01/13 01:51:56;;;;;;;13.18;7.05;;;8.50;99.90;;;;;;5014798;28;20419;-73
2022/01/13 01:54:22;;;;;;;11.32;6.88;;;8.60;99.90;;;;;;5014560;28;20080;-73
2022/01/13 01:56:48;;;;;;;10.63;6.80;;;8.60;99.90;;;;;;5014377;28;20022;-73
2022/01/13 01:59:18;;;;;;;10.70;6.85;;;8.60;99.90;;;;;;5014172;28;20405;-73
2022/01/13 02:01:49;;;;;;;12.65;7.60;;;8.50;99.90;;;;;;5014092;28;20018;-73
2022/01/13 02:04:16;;;;;;;9.68;6.40;;;8.50;99.90;;;;;;5013391;28;20057;-73
2022/01/13 02:06:44;;;;;;;12.85;7.93;;;8.40;99.90;;;;;;5014557;28;20018;-73
2022/01/13 02:09:11;;;;;;;12.63;7.65;;;8.50;99.90;;;;;;5014238;28;20026;-73
2022/01/13 02:11:47;;;;;;;13.93;7.93;;;8.40;99.90;;;;;;5013944;28;20075;-73
2022/01/13 02:16:55;;;;;;;;;;;8.30;99.90;;;;;;5014798;28;20083;-73
2022/01/13 02:19:25;;;;;;;11.73;7.35;;;8.30;99.90;;;;;;4996254;28;19906;-73
2022/01/13 02:21:51;;;;;;;12.77;7.80;;;8.30;99.90;;;;;;5013807;28;20033;-73
2022/01/13 02:24:17;;;;;;;12.68;7.65;;;8.30;99.90;;;;;;5013734;28;20026;-73
2022/01/13 02:26:43;;;;;;;13.52;7.95;;;8.10;99.90;;;;;;5013697;28;20044;-73
2022/01/13 02:29:09;;;;;;;11.10;7.25;;;8.10;99.90;;;;;;5013674;28;20108;-73
2022/01/13 02:31:35;;;;;;;11.00;7.03;;;8.10;99.90;;;;;;5013900;28;20057;-73
2022/01/13 02:34:01;;;;;;;11.98;6.78;;;8.20;99.90;;;;;;5013600;28;20025;-73
2022/01/13 02:36:30;;;;;;;12.45;7.45;;;8.20;99.90;;;;;;5013547;28;20034;-73
2022/01/13 02:38:57;;;;;;;12.77;7.78;;;8.20;99.90;;;;;;5013574;28;20025;-73
2022/01/13 02:41:23;;;;;;;12.40;7.30;;;8.10;99.90;;;;;;5013751;28;20033;-73
2022/01/13 02:43:50;;;;;;;12.05;7.30;;;8.10;99.90;;;;;;5013338;28;20088;-73
2022/01/13 02:49:10;;;;;;;10.82;6.55;;;8.10;99.90;;;;;;5009826;28;20062;-73
2022/01/13 02:51:36;;;;;;;10.98;6.97;;;8.20;99.90;;;;;;5013439;28;20482;-73
2022/01/13 02:54:03;;;;;;;13.32;7.50;;;8.10;99.90;;;;;;5013455;28;20565;-73
2022/01/13 02:56:30;;;;;;;12.43;7.38;;;8.00;99.90;;;;;;5013361;28;20030;-73
2022/01/13 02:58:56;;;;;;;11.15;7.22;;;8.00;99.90;;;;;;5013362;28;20018;-73
2022/01/13 03:01:22;;;;;;;12.85;7.38;;;7.90;99.90;;;;;;5013414;28;20359;-73
2022/01/13 03:03:48;;;;;;;11.18;6.55;;;7.90;99.90;;;;;;5013593;28;20466;-73
2022/01/13 03:06:20;;;;;;;11.40;7.07;;;8.00;99.90;;;;;;5013332;28;20056;-73
2022/01/13 03:08:47;;;;;;;11.18;6.88;;;7.90;99.90;;;;;;4995499;28;20442;-73
2022/01/13 03:11:14;;;;;;;11.40;6.32;;;8.10;99.90;;;;;;5013303;28;20120;-73
2022/01/13 03:13:40;;;;;;;11.07;6.80;;;8.00;99.90;;;;;;5013553;28;20529;-73
2022/01/13 03:16:10;;;;;;;11.43;6.93;;;7.90;99.90;;;;;;5016882;28;20145;-73
2022/01/13 03:18:37;;;;;;;11.52;6.80;;;7.90;99.90;;;;;;5017126;28;20026;-73
2022/01/13 03:21:04;;;;;;;11.30;6.97;;;8.10;99.90;;;;;;4999430;28;20504;-73
2022/01/13 03:23:30;;;;;;;12.82;6.93;;;8.10;99.90;;;;;;5016854;28;20025;-73
2022/01/13 03:25:56;;;;;;;11.05;6.53;;;8.10;99.90;;;;;;5016938;28;20101;-73
2022/01/13 03:28:37;;;;;;;10.15;6.03;;;8.10;99.90;;;;;;4999302;28;20030;-73
2022/01/13 03:31:04;;;;;;;9.38;5.70;;;8.20;99.90;;;;;;5017189;28;20030;-73
2022/01/13 03:33:30;;;;;;;12.73;7.60;;;8.30;99.90;;;;;;5016831;28;20471;-73
2022/01/13 03:35:59;;;;;;;13.25;7.20;;;8.10;99.90;;;;;;5016706;28;20080;-73
2022/01/13 03:38:25;;;;;;;11.35;7.60;;;8.10;99.90;;;;;;5016723;28;20384;-73
2022/01/13 03:40:51;;;;;;;11.98;7.07;;;8.10;99.90;;;;;;5016693;28;20084;-73
2022/01/13 03:43:18;;;;;;;11.85;7.75;;;7.90;99.90;;;;;;5016650;28;20034;-73
2022/01/13 03:45:44;;;;;;;12.75;8.05;;;7.90;99.90;;;;;;5016643;28;20052;-73
2022/01/13 03:48:13;;;;;;;10.48;6.85;;;7.70;99.90;;;;;;5016548;28;20072;-73
2022/01/13 03:50:40;;;;;;;12.75;6.93;;;7.60;99.90;;;;;;5016829;28;20034;-73
2022/01/13 03:53:27;;;;;;;12.75;7.63;;;7.40;99.90;;;;;;5016476;28;20014;-73
2022/01/13 03:56:30;;;;;;;10.95;6.72;;;7.40;99.90;;;;;;5016370;28;20040;-73
2022/01/13 03:58:56;;;;;;;11.73;7.28;;;7.40;99.90;;;;;;5016623;28;20025;-73
2022/01/13 04:01:50;;;;;;;12.77;7.13;;;7.20;99.90;;;;;;5016595;28;20022;-73
2022/01/13 04:04:16;;;;;;;12.48;7.38;;;7.30;99.90;;;;;;5016818;28;20478;-73
2022/01/13 04:06:43;;;;;;;13.65;8.77;;;7.50;99.90;;;;;;5016236;28;20105;-73
2022/01/13 04:09:35;;;;;;;13.00;8.00;;;7.50;99.90;;;;;;5016143;28;20022;-73
2022/01/13 04:12:04;;;;;;;12.52;7.85;;;7.40;99.90;;;;;;5016008;28;20504;-73
2022/01/13 04:14:49;;;;;;;12.87;8.23;;;7.50;99.90;;;;;;5016131;28;20080;-73
2022/01/13 04:17:20;;;;;;;14.95;9.00;;;7.40;99.90;;;;;;5016582;28;20034;-73
2022/01/13 04:19:47;;;;;;;13.07;7.75;;;7.20;99.90;;;;;;5016279;28;20022;-73
2022/01/13 04:22:14;;;;;;;11.38;7.03;;;7.30;99.90;;;;;;5016196;28;20026;-73
2022/01/13 04:24:45;;;;;;;12.77;8.10;;;7.40;99.90;;;;;;5016153;28;20018;-73
2022/01/13 04:27:24;;;;;;;12.93;7.78;;;7.30;99.90;;;;;;5015375;28;20490;-73
2022/01/13 04:30:11;;;;;;;13.10;8.02;;;7.30;99.90;;;;;;5016133;28;20029;-73
2022/01/13 04:32:37;;;;;;;13.27;8.63;;;7.20;99.90;;;;;;5015580;28;20057;-73
2022/01/13 04:35:04;;;;;;;14.77;8.82;;;7.10;99.90;;;;;;5015596;28;20096;-73
2022/01/13 04:37:29;;;;;;;13.80;7.88;;;7.00;99.90;;;;;;5015646;28;20029;-73
2022/01/13 04:39:55;;;;;;;13.40;8.15;;;7.00;99.90;;;;;;5015619;28;20386;-73
2022/01/13 04:42:21;;;;;;;12.68;7.72;;;7.10;99.90;;;;;;5015454;28;20033;-73
2022/01/13 04:44:46;;;;;;;12.65;7.85;;;7.20;99.90;;;;;;5015117;28;20048;-73
2022/01/13 04:47:12;;;;;;;12.77;7.63;;;7.20;99.90;;;;;;5015987;28;20117;-73
2022/01/13 04:49:37;;;;;;;12.25;7.20;;;7.30;99.90;;;;;;5015944;28;20062;-73
2022/01/13 04:52:03;;;;;;;11.05;7.00;;;7.50;99.90;;;;;;5015392;28;20080;-73
2022/01/13 04:54:29;;;;;;;12.25;7.60;;;7.50;99.90;;;;;;5015344;28;20541;-73
2022/01/13 04:57:15;;;;;;;14.57;8.05;;;7.60;99.90;;;;;;5015494;28;20038;-73
2022/01/13 04:59:41;;;;;;;13.75;7.75;;;7.40;99.90;;;;;;5015547;28;20022;-73
2022/01/13 05:02:07;;;;;;;13.65;8.43;;;7.20;99.90;;;;;;5015198;28;20029;-73
2022/01/13 05:04:32;;;;;;;12.30;8.13;;;7.10;99.90;;;;;;5015167;28;20025;-73
2022/01/13 05:06:58;;;;;;;13.48;8.48;;;7.10;99.90;;;;;;5015063;28;20037;-73
2022/01/13 05:09:23;;;;;;;14.13;9.50;;;7.10;99.90;;;;;;5015052;28;20036;-73
2022/01/13 05:11:49;;;;;;;12.70;8.02;;;7.00;99.90;;;;;;5015019;28;20030;-73
2022/01/13 05:14:15;;;;;;;13.05;8.45;;;7.10;99.90;;;;;;5015005;28;20397;-73
2022/01/13 05:16:57;;;;;;;15.43;9.90;;;7.10;99.90;;;;;;5014826;28;20029;-73
2022/01/13 05:19:58;;;;;;;15.55;9.70;;;7.00;99.90;;;;;;5015454;28;20018;-73
2022/01/13 05:24:38;;;;;;;15.90;9.73;;;7.00;99.90;;;;;;5015581;28;20029;-73
2022/01/13 05:27:04;;;;;;;13.40;8.73;;;7.10;99.90;;;;;;5014971;28;20037;-73
2022/01/13 05:29:30;;;;;;;14.85;9.02;;;7.10;99.90;;;;;;5014932;28;20451;-73
2022/01/13 05:31:56;;;;;;;14.50;9.40;;;7.10;99.90;;;;;;5014612;28;20101;-73
2022/01/13 05:34:21;;;;;;;14.48;9.30;;;7.10;99.90;;;;;;5014609;28;20109;-73
2022/01/13 05:36:47;;;;;;;15.57;9.93;;;7.20;99.90;;;;;;5014455;28;20394;-73
2022/01/13 05:39:13;;;;;;;15.35;9.52;;;7.10;99.90;;;;;;5013748;28;20030;-73
2022/01/13 05:41:39;;;;;;;14.73;9.45;;;7.10;99.90;;;;;;5014438;28;20026;-73
2022/01/13 05:44:05;;;;;;;18.98;10.73;;;7.10;99.90;;;;;;5014216;28;20099;-73
2022/01/13 05:46:31;;;;;;;18.65;11.25;;;7.10;99.90;;;;;;5014381;28;20125;-73
2022/01/13 05:48:57;;;;;;;18.98;10.68;;;7.00;99.90;;;;;;5014622;28;20080;-73
2022/01/13 05:51:23;;;;;;;18.48;10.75;;;6.90;99.90;;;;;;5014283;28;20034;-73
2022/01/13 05:53:49;;;;;;;19.40;11.95;;;6.90;99.90;;;;;;5014300;28;20026;-73
2022/01/13 05:56:15;;;;;;;15.75;9.40;;;6.80;99.90;;;;;;5014123;28;20040;-73
2022/01/13 05:58:41;;;;;;;14.88;10.18;;;6.70;99.90;;;;;;5014121;28;20532;-73
2022/01/13 06:01:07;;;;;;;16.48;10.30;;;6.70;99.90;;;;;;5013829;28;20112;-73
2022/01/13 06:03:32;;;;;;;18.38;11.38;;;6.60;99.90;;;;;;5014086;28;20110;-73
2022/01/13 06:05:58;;;;;;;16.95;11.05;;;6.60;99.90;;;;;;5014253;28;20041;-73
2022/01/13 06:08:24;;;;;;;17.17;10.88;;;6.70;99.90;;;;;;5013995;28;20380;-72
2022/01/13 06:10:49;;;;;;;17.88;11.18;;;6.70;99.90;;;;;;5014213;28;20026;-73
2022/01/13 06:13:15;;;;;;;16.73;10.63;;;6.60;99.90;;;;;;4996245;28;20033;-73
2022/01/13 06:15:41;;;;;;;16.10;9.77;;;6.60;99.90;;;;;;5013799;28;20026;-73
2022/01/13 06:18:15;;;;;;;16.50;10.18;;;6.70;99.90;;;;;;5013810;28;20364;-73
2022/01/13 06:20:41;;;;;;;16.63;9.85;;;6.70;99.90;;;;;;4996163;28;20376;-73
2022/01/13 06:23:08;;;;;;;17.52;10.43;;;6.80;99.90;;;;;;5014077;28;20025;-73
2022/01/13 06:25:35;;;;;;;16.80;10.73;;;6.80;99.90;;;;;;5013821;28;20113;-73
2022/01/13 06:28:01;;;;;;;17.58;10.82;;;6.70;99.90;;;;;;4996130;28;20041;-73
2022/01/13 06:30:27;;;;;;;17.83;11.43;;;6.70;99.90;;;;;;5013681;28;20045;-73
2022/01/13 06:32:52;;;;;;;17.48;11.43;;;6.70;99.90;;;;;;5013663;28;20061;-73
2022/01/13 06:35:18;;;;;;;17.45;11.07;;;6.70;99.90;;;;;;5013584;28;20058;-73
2022/01/13 06:37:44;;;;;;;17.75;11.43;;;6.70;99.90;;;;;;5013618;28;20021;-73
2022/01/13 06:40:12;;;;;;;18.70;11.35;;;6.50;99.90;;;;;;5013869;28;20026;-73
2022/01/13 06:42:38;;;;;;;17.13;10.38;;;6.50;99.90;;;;;;5013315;28;20029;-73
2022/01/13 06:45:05;;;;;;;14.82;10.07;;;6.50;99.90;;;;;;5013786;28;20030;-73
2022/01/13 06:47:31;;;;;;;17.05;10.43;;;6.50;99.90;;;;;;5013471;28;20014;-73
2022/01/13 06:49:57;;;;;;;17.40;11.13;;;6.70;99.90;;;;;;5013391;28;20022;-73
2022/01/13 06:52:23;;;;;;;16.73;10.63;;;6.70;99.90;;;;;;5013481;28;20037;-73
2022/01/13 06:54:49;;;;;;;19.05;11.07;;;6.70;99.90;;;;;;5013473;28;20123;-73
2022/01/13 06:57:15;;;;;;;17.95;11.75;;;6.70;99.90;;;;;;5013342;28;20102;-73
2022/01/13 07:12:55;;;;;;;17.17;11.23;;;6.60;99.90;;;;;;5131949;27;20616;-72
2022/01/13 07:15:22;;;;;;;16.45;11.30;;;7.30;99.90;;;;;;5111183;28;20074;-72
2022/01/13 07:17:48;;;;;;;18.35;12.30;;;7.30;99.90;;;;;;5111135;28;20050;-72
2022/01/13 07:20:14;;;;;;;18.65;12.75;;;7.20;99.90;;;;;;5110720;28;20107;-72
2022/01/13 07:22:40;;;;;;;19.65;11.93;;;7.00;99.90;;;;;;5110759;28;20098;-72
2022/01/13 07:25:08;;;;;;;19.00;10.95;;;6.70;99.90;;;;;;5110712;28;20012;-72
2022/01/13 07:27:34;;;;;;;20.85;12.95;;;6.80;99.90;;;;;;5110653;28;20098;-72
2022/01/13 07:29:59;;;;;;;17.85;11.18;;;6.80;99.90;;;;;;5110603;28;20020;-72
2022/01/13 07:32:25;;;;;;;19.33;11.65;;;6.80;99.90;;;;;;5110834;28;20433;-72
2022/01/13 07:34:51;;;;;;;19.40;12.10;;;6.60;99.90;;;;;;5110798;28;20020;-72
2022/01/13 07:37:17;;;;;;;21.20;13.63;;;6.60;99.90;;;;;;5092191;28;20173;-72
2022/01/13 07:39:42;;;;;;;18.10;11.88;;;6.50;99.90;;;;;;5110411;28;20023;-72
2022/01/13 07:42:09;;;;;;;22.42;12.52;;;6.50;99.90;;;;;;5110329;28;20106;-72
2022/01/13 07:44:34;;;;;;;19.85;12.65;;;6.50;99.90;;;;;;5110571;28;20020;-72
2022/01/13 07:47:00;;;;;;;20.45;13.07;;;6.60;99.90;;;;;;5110345;28;20435;-72
2022/01/13 07:49:27;;;;;;;22.65;12.98;;;6.50;99.90;;;;;;5110809;28;20016;-72
2022/01/13 07:51:53;;;;;;;19.80;12.48;;;6.40;99.90;;;;;;5110766;28;20501;-72
2022/01/13 07:54:19;;;;;;;20.75;12.73;;;6.50;99.90;;;;;;5092049;28;20115;-75
2022/01/13 07:56:44;;;;;;;21.23;13.25;;;6.40;99.90;;;;;;5097463;28;20032;-75
2022/01/13 07:59:10;;;;;;;18.88;11.50;;;6.40;99.90;;;;;;5090067;28;20495;-74
2022/01/13 08:01:36;;;;;;;20.83;13.23;;;6.50;99.90;;;;;;5091078;28;20499;-76
2022/01/13 08:04:01;;;;;;;22.00;13.77;;;6.60;99.90;;;;;;5071772;28;20115;-74
2022/01/13 08:06:27;;;;;;;21.83;13.77;;;6.60;99.90;;;;;;5089827;28;20486;-73
2022/01/13 08:08:52;;;;;;;21.15;13.02;;;6.60;99.90;;;;;;5071311;28;20027;-80
2022/01/13 08:11:18;;;;;;;24.48;14.77;;;6.60;99.90;;;;;;5093656;28;20059;-76
2022/01/13 08:13:45;;;;;;;26.63;16.23;;;6.60;99.90;;;;;;5096640;28;20039;-75
2022/01/13 08:16:11;;;;;;;42.83;22.55;;;6.60;99.90;;;;;;5082596;28;20512;-73
2022/01/13 08:21:23;;;;;;;37.67;21.40;;;6.60;99.90;;;;;;5089317;28;20074;-75
2022/01/13 08:23:50;;;;;;;39.38;20.70;;;6.60;99.90;;;;;;5075755;28;20024;-77
2022/01/13 08:26:17;;;;;;;27.95;16.40;;;6.70;99.90;;;;;;5076499;28;20029;-76
2022/01/13 08:28:43;;;;;;;41.30;23.90;;;6.60;99.90;;;;;;5075984;28;20466;-75
2022/01/13 08:31:09;;;;;;;44.58;27.10;;;6.50;99.90;;;;;;5083651;28;20106;-76
2022/01/13 08:33:35;;;;;;;30.25;17.60;;;6.40;99.90;;;;;;5095719;28;20031;-76
2022/01/13 08:36:00;;;;;;;23.35;13.82;;;6.30;99.90;;;;;;5093201;28;20028;-77
2022/01/13 08:38:26;;;;;;;22.92;14.25;;;6.30;99.90;;;;;;5095742;28;20032;-76
2022/01/13 08:40:56;;;;;;;24.02;13.93;;;6.30;99.90;;;;;;5085808;28;20024;-75
2022/01/13 08:43:23;;;;;;;25.38;14.32;;;6.40;99.90;;;;;;5076460;28;20024;-77
2022/01/13 08:45:49;;;;;;;21.08;12.80;;;6.50;99.90;;;;;;5074182;28;20037;-76
2022/01/13 08:48:15;;;;;;;21.77;13.25;;;6.40;99.90;;;;;;5081438;28;20511;-77
2022/01/13 08:50:41;;;;;;;21.90;12.55;;;6.40;99.90;;;;;;5079784;28;20056;-77
2022/01/13 08:53:06;;;;;;;20.58;12.52;;;6.50;99.90;;;;;;5075251;28;20477;-77
2022/01/13 08:55:33;;;;;;;20.63;12.70;;;6.50;99.90;;;;;;5077451;28;20024;-79
2022/01/13 08:57:59;;;;;;;19.15;11.75;;;6.50;99.90;;;;;;5082144;28;20070;-74
2022/01/13 09:00:25;;;;;;;19.83;12.02;;;6.40;99.90;;;;;;5076879;28;20040;-77
2022/01/13 09:02:51;;;;;;;25.20;12.48;;;6.50;99.90;;;;;;5094830;28;20044;-80
2022/01/13 09:05:18;;;;;;;17.92;11.35;;;6.50;99.90;;;;;;5095245;28;20120;-76
2022/01/13 09:07:44;;;;;;;20.73;12.20;;;6.50;99.90;;;;;;5094504;28;20504;-76
2022/01/13 09:10:11;;;;;;;19.98;11.98;;;6.50;99.90;;;;;;5084934;28;20024;-74
2022/01/13 09:12:37;;;;;;;21.50;11.93;;;6.50;99.90;;;;;;5058587;28;20177;-75
2022/01/13 09:15:15;;;;;;;19.42;11.27;;;6.50;99.90;;;;;;5055820;28;20029;-75
2022/01/13 09:17:43;;;;;;;18.58;11.40;;;6.30;99.90;;;;;;5055397;28;20075;-75
2022/01/13 09:20:13;;;;;;;17.80;11.38;;;6.40;99.90;;;;;;5054831;28;20028;-75
2022/01/13 09:22:43;;;;;;;18.65;11.25;;;6.50;99.90;;;;;;5056726;28;20017;-75
2022/01/13 09:25:11;;;;;;;17.55;10.60;;;6.60;99.90;;;;;;5074228;28;20024;-76
2022/01/13 09:27:40;;;;;;;19.25;11.90;;;6.50;99.90;;;;;;5071623;28;20104;-80
2022/01/13 09:30:08;;;;;;;18.83;12.50;;;6.50;99.90;;;;;;5063332;28;20016;-77
2022/01/13 09:32:35;;;;;;;20.58;12.45;;;6.50;99.90;;;;;;5072541;28;20032;-78
2022/01/13 09:35:01;;;;;;;18.88;11.45;;;6.50;99.90;;;;;;5073953;28;20020;-76
2022/01/13 09:37:27;;;;;;;19.88;10.57;;;6.50;99.90;;;;;;5072076;28;20017;-76
2022/01/13 09:39:53;;;;;;;20.58;11.35;;;6.40;99.90;;;;;;5071941;28;20016;-75
2022/01/13 09:42:20;;;;;;;22.85;11.75;;;6.40;99.90;;;;;;5073668;28;20040;-75
2022/01/13 09:44:47;;;;;;;21.27;11.90;;;6.30;99.90;;;;;;5074449;28;20047;-74
2022/01/13 09:47:13;;;;;;;19.92;11.55;;;6.30;99.90;;;;;;5072293;28;20162;-74
2022/01/13 09:49:39;;;;;;;18.95;11.32;;;6.30;99.90;;;;;;5074120;28;20485;-74
2022/01/13 09:52:05;;;;;;;21.48;12.05;;;6.30;99.90;;;;;;5072178;28;20029;-74
2022/01/13 09:54:31;;;;;;;21.95;12.05;;;6.40;99.90;;;;;;5074001;28;20058;-76
2022/01/13 09:56:56;;;;;;;20.13;11.43;;;6.30;99.90;;;;;;5064224;28;20020;-75
2022/01/13 09:59:22;;;;;;;19.27;10.80;;;6.40;99.90;;;;;;5060910;28;20107;-75
2022/01/13 10:01:47;;;;;;;18.20;10.60;;;6.30;99.90;;;;;;5074092;28;20030;-74
2022/01/13 10:04:13;;;;;;;17.88;11.55;;;6.40;99.90;;;;;;5074000;28;20028;-75
2022/01/13 10:06:47;;;;;;;18.13;10.32;;;6.30;99.90;;;;;;5072416;28;20389;-75
2022/01/13 10:09:13;;;;;;;16.73;9.88;;;6.20;99.90;;;;;;5055565;28;20024;-73
2022/01/13 10:11:52;;;;;;;18.92;11.02;;;6.20;99.90;;;;;;5073209;28;20124;-77
2022/01/13 10:17:12;;;;;;;21.42;10.95;;;6.30;99.90;;;;;;5073367;28;20390;-76
2022/01/13 10:19:42;;;;;;;18.95;11.60;;;6.30;99.90;;;;;;5049386;28;20032;-77
2022/01/13 10:22:13;;;;;;;16.98;10.70;;;6.30;99.90;;;;;;5053559;28;20449;-74
2022/01/13 10:24:43;;;;;;;17.08;9.75;;;6.40;99.90;;;;;;5053960;28;20029;-76
2022/01/13 10:27:21;;;;;;;16.30;9.13;;;6.40;99.90;;;;;;5058369;28;20025;-74
2022/01/13 10:29:49;;;;;;;16.38;9.32;;;6.10;99.90;;;;;;5066743;28;20033;-75
2022/01/13 10:32:24;;;;;;;17.63;9.70;;;6.10;99.90;;;;;;5053384;28;20021;-74
2022/01/13 10:34:58;;;;;;;18.90;10.05;;;6.20;99.90;;;;;;5059678;28;20024;-75
2022/01/13 10:37:33;;;;;;;17.17;9.77;;;6.30;99.90;;;;;;5057285;28;20024;-75
2022/01/13 10:40:08;;;;;;;19.33;9.80;;;6.30;99.90;;;;;;5054196;28;20498;-74
2022/01/13 10:45:04;;;;;;;18.48;10.40;;;6.50;99.90;;;;;;5071713;28;20561;-75
2022/01/13 10:47:32;;;;;;;18.60;10.07;;;6.60;99.90;;;;;;5054471;28;20440;-76
2022/01/13 10:50:04;;;;;;;19.67;10.30;;;6.70;99.90;;;;;;5063816;28;20039;-76
2022/01/13 10:52:30;;;;;;;17.40;9.93;;;6.70;99.90;;;;;;5072695;28;20436;-74
2022/01/13 10:55:08;;;;;;;18.13;10.65;;;6.90;99.90;;;;;;5073444;28;20028;-74
2022/01/13 10:57:35;;;;;;;16.08;9.88;;;7.00;99.90;;;;;;5071326;28;20451;-76
2022/01/13 11:00:03;;;;;;;14.95;9.43;;;6.90;99.90;;;;;;5070569;28;20016;-75
2022/01/13 11:02:28;;;;;;;19.58;9.57;;;6.90;99.90;;;;;;5071075;28;20108;-75
2022/01/13 11:04:54;;;;;;;15.90;8.95;;;6.90;99.90;;;;;;5073340;28;20096;-76
2022/01/13 11:07:25;;;;;;;20.33;11.07;;;7.00;99.90;;;;;;5071954;28;20028;-76
2022/01/13 11:10:03;;;;;;;17.40;9.98;;;7.10;99.90;;;;;;5067511;28;20023;-77
2022/01/13 11:12:43;;;;;;;19.67;10.25;;;7.00;99.90;;;;;;5053035;28;20087;-76
2022/01/13 11:15:17;;;;;;;16.10;10.00;;;7.10;99.90;;;;;;5053279;28;20049;-74
2022/01/13 11:17:45;;;;;;;18.17;10.00;;;7.00;99.90;;;;;;5054015;28;20044;-75
2022/01/13 11:20:18;;;;;;;17.33;9.93;;;7.00;99.90;;;;;;5056272;28;20504;-75
2022/01/13 11:22:47;;;;;;;16.67;9.77;;;7.00;99.90;;;;;;5057412;28;20029;-75
2022/01/13 11:25:15;;;;;;;17.65;10.55;;;6.90;99.90;;;;;;5064909;28;20063;-75
2022/01/13 11:27:41;;;;;;;16.65;10.50;;;6.80;99.90;;;;;;5072290;28;20513;-75
2022/01/13 11:30:16;;;;;;;16.58;9.65;;;6.90;99.90;;;;;;5072823;28;20032;-76
2022/01/13 11:32:44;;;;;;;19.15;10.85;;;7.00;99.90;;;;;;5054651;28;20116;-73
2022/01/13 11:35:21;;;;;;;17.48;9.60;;;7.00;99.90;;;;;;5034880;28;20021;-71
2022/01/13 11:37:47;;;;;;;17.50;10.35;;;7.00;99.90;;;;;;5053064;28;20025;-72
2022/01/13 11:40:27;;;;;;;16.90;9.43;;;7.00;99.90;;;;;;5052587;28;20096;-73
2022/01/13 11:42:59;;;;;;;16.33;9.30;;;7.00;99.90;;;;;;5052655;28;20029;-72
2022/01/13 11:45:26;;;;;;;17.45;10.43;;;7.00;99.90;;;;;;5052608;28;20466;-72
2022/01/13 11:48:17;;;;;;;20.45;10.15;;;7.00;99.90;;;;;;5054195;28;20074;-72
2022/01/13 11:50:55;;;;;;;15.80;9.30;;;7.00;99.90;;;;;;5056988;28;20021;-74
2022/01/13 11:53:26;;;;;;;16.80;9.73;;;7.00;99.90;;;;;;5056959;28;20025;-72
2022/01/13 11:56:02;;;;;;;17.77;10.23;;;7.10;99.90;;;;;;5056355;28;20048;-73
2022/01/13 11:58:38;;;;;;;16.42;10.02;;;7.00;99.90;;;;;;5056497;28;20032;-73
2022/01/13 12:01:30;;;;;;;16.30;9.70;;;7.00;99.90;;;;;;5056393;28;20036;-73
2022/01/13 12:04:02;;;;;;;17.40;9.85;;;7.10;99.90;;;;;;5052220;28;20528;-71
2022/01/13 12:06:33;;;;;;;16.83;9.50;;;7.00;99.90;;;;;;5056161;28;20021;-73
2022/01/13 12:08:59;;;;;;;18.27;9.77;;;7.20;99.90;;;;;;5056062;28;20025;-72
2022/01/13 12:11:42;;;;;;;19.33;10.70;;;7.20;99.90;;;;;;5056060;28;20576;-73
2022/01/13 12:14:29;;;;;;;18.73;10.13;;;7.20;99.90;;;;;;5038117;28;20033;-71
2022/01/13 12:16:59;;;;;;;17.73;10.80;;;7.20;99.90;;;;;;5056490;28;20028;-73
2022/01/13 12:19:37;;;;;;;;;;;7.20;99.90;;;;;;5056591;28;20025;-73
2022/01/13 12:22:11;;;;;;;16.70;9.65;;;7.20;99.90;;;;;;5055998;28;19909;-75
2022/01/13 12:25:00;;;;;;;15.98;8.85;;;7.20;99.90;;;;;;5056358;28;20100;-74
2022/01/13 12:27:44;;;;;;;16.77;9.65;;;7.20;99.90;;;;;;5056293;28;20107;-72
2022/01/13 12:30:16;;;;;;;20.05;10.23;;;7.30;99.90;;;;;;5055993;28;20056;-71
2022/01/13 12:32:46;;;;;;;19.02;10.43;;;7.30;99.90;;;;;;5055959;28;20070;-72
2022/01/13 12:35:15;;;;;;;19.73;10.07;;;7.30;99.90;;;;;;5055588;28;20024;-72
2022/01/13 12:37:41;;;;;;;17.48;10.20;;;7.20;99.90;;;;;;5055530;28;20056;-72
2022/01/13 12:40:17;;;;;;;18.25;9.18;;;7.30;99.90;;;;;;5055439;28;20021;-72
2022/01/13 12:42:52;;;;;;;17.73;9.30;;;7.20;99.90;;;;;;5055727;28;20045;-74
2022/01/13 12:45:31;;;;;;;18.00;10.07;;;7.30;99.90;;;;;;5055419;28;20017;-74
2022/01/13 12:48:08;;;;;;;16.23;9.77;;;7.30;99.90;;;;;;5055689;28;20029;-72
2022/01/13 12:50:43;;;;;;;14.85;9.52;;;7.40;99.90;;;;;;5055327;28;20029;-73
2022/01/13 12:53:19;;;;;;;16.77;9.85;;;7.40;99.90;;;;;;5055590;28;20072;-74
2022/01/13 12:56:00;;;;;;;18.52;10.60;;;7.40;99.90;;;;;;5055785;28;20025;-74
2022/01/13 12:58:29;;;;;;;17.80;10.30;;;7.40;99.90;;;;;;5055340;28;20389;-73
2022/01/13 13:01:00;;;;;;;18.80;10.65;;;7.40;99.90;;;;;;5055041;28;20386;-72
2022/01/13 13:03:26;;;;;;;17.40;10.85;;;7.50;99.90;;;;;;5055210;28;20029;-72
2022/01/13 13:05:53;;;;;;;17.88;10.20;;;7.50;99.90;;;;;;5055025;28;20021;-72
2022/01/13 13:08:21;;;;;;;16.48;9.93;;;7.50;99.90;;;;;;5055205;28;20025;-72
2022/01/13 13:10:59;;;;;;;14.75;8.95;;;7.50;99.90;;;;;;5054669;28;20063;-73
2022/01/13 13:13:27;;;;;;;16.75;9.55;;;7.50;99.90;;;;;;5068148;28;20044;-77
2022/01/13 13:15:57;;;;;;;17.25;9.60;;;7.60;99.90;;;;;;5074798;28;20501;-76
2022/01/13 13:18:25;;;;;;;16.30;9.60;;;7.60;99.90;;;;;;5075048;28;20539;-76
2022/01/13 13:20:51;;;;;;;15.38;9.38;;;7.70;99.90;;;;;;5074685;28;20074;-76
2022/01/13 13:23:21;;;;;;;16.70;9.82;;;7.70;99.90;;;;;;5072840;28;20052;-76
2022/01/13 13:25:51;;;;;;;17.80;10.63;;;7.70;99.90;;;;;;5074686;28;20024;-76
2022/01/13 13:28:39;;;;;;;16.55;9.93;;;7.80;99.90;;;;;;5074569;28;20052;-80
2022/01/13 13:31:08;;;;;;;18.65;9.95;;;7.80;99.90;;;;;;5074843;28;20062;-76
2022/01/13 13:33:45;;;;;;;15.73;9.30;;;7.90;99.90;;;;;;5070834;28;20505;-75
2022/01/13 13:36:17;;;;;;;13.57;8.05;;;7.90;99.90;;;;;;5074664;28;20100;-77
2022/01/13 13:38:57;;;;;;;13.13;7.72;;;8.00;99.90;;;;;;5054438;28;20029;-77
2022/01/13 13:41:26;;;;;;;16.27;8.77;;;7.90;99.90;;;;;;5055049;28;20474;-77